< < Back
Terminal Aerodrome Forecast


Current Version              Previous Versions:   1  2  3  4  5  6  7  8  9  

Terminal Aerodrome Forecast

362
FTUS44 KMOB 241700 RRA
TAFMOB
TAF
KMOB 241755Z 2418/2518 33006KT P6SM SCT250
     FM250600 35010KT P6SM SCT250=



Latest METAR

257
SAUS80 KWBC 250200 CCA
MTRMOB
METAR KMOB 250156Z 35010KT 10SM BKN200 14/08 A2999 RMK AO2 SLP154
T01440083


USA.gov is the U.S. government's official web portal to all federal, state and local government web resources and services.